createdAt,value
2022-11-03T00:02:19.097Z,6.10
2022-11-03T00:04:47.924Z,6.95
2022-11-03T00:07:22.368Z,6.47
2022-11-03T00:09:51.198Z,5.93
2022-11-03T00:12:26.236Z,5.90
2022-11-03T00:15:10.659Z,5.97
2022-11-03T00:17:42.295Z,5.80
2022-11-03T00:20:13.582Z,6.25
2022-11-03T00:22:45.072Z,6.50
2022-11-03T00:25:19.607Z,5.70
2022-11-03T00:27:55.917Z,5.78
2022-11-03T00:30:27.510Z,4.70
2022-11-03T00:32:56.436Z,5.55
2022-11-03T00:35:24.779Z,4.95
2022-11-03T00:37:57.040Z,4.57
2022-11-03T00:40:28.331Z,3.88
2022-11-03T00:42:59.515Z,3.55
2022-11-03T00:45:32.685Z,3.97
2022-11-03T00:48:21.717Z,3.95
2022-11-03T00:50:54.868Z,3.75
2022-11-03T00:53:28.455Z,3.75
2022-11-03T00:55:57.271Z,4.30
2022-11-03T00:58:27.197Z,4.57
2022-11-03T01:01:08.121Z,4.32
2022-11-03T01:04:04.459Z,4.68
2022-11-03T01:06:53.187Z,5.28
2022-11-03T01:09:37.392Z,4.88
2022-11-03T01:12:10.301Z,5.40
2022-11-03T01:14:43.876Z,4.97
2022-11-03T01:17:19.610Z,6.22
2022-11-03T01:19:48.541Z,6.35
2022-11-03T01:22:21.711Z,6.10
2022-11-03T01:24:52.391Z,6.22
2022-11-03T01:27:27.231Z,6.28
2022-11-03T01:29:57.969Z,5.50
2022-11-03T01:32:31.131Z,6.53
2022-11-03T01:35:01.172Z,5.30
2022-11-03T01:37:31.452Z,4.95
2022-11-03T01:40:05.981Z,5.00
2022-11-03T01:42:34.334Z,6.00
2022-11-03T01:47:54.743Z,6.15
2022-11-03T01:50:23.497Z,5.32
2022-11-03T01:52:59.335Z,5.75
2022-11-03T01:55:35.095Z,5.47
2022-11-03T01:58:06.730Z,5.43
2022-11-03T02:00:37.033Z,6.35
2022-11-03T02:03:07.093Z,5.85
2022-11-03T02:05:41.854Z,6.25
2022-11-03T02:08:12.187Z,5.97
2022-11-03T02:10:54.540Z,5.45
2022-11-03T02:13:28.243Z,5.65
2022-11-03T02:16:02.592Z,5.72
2022-11-03T02:18:38.146Z,6.60
2022-11-03T02:24:00.067Z,5.07
2022-11-03T02:26:50.686Z,5.90
2022-11-03T02:29:25.027Z,5.22
2022-11-03T02:32:07.700Z,5.43
2022-11-03T02:34:45.469Z,5.15
2022-11-03T02:37:20.608Z,5.20
2022-11-03T02:39:55.019Z,5.63
2022-11-03T02:42:25.075Z,5.00
2022-11-03T02:44:55.676Z,5.18
2022-11-03T02:47:26.285Z,5.60
2022-11-03T02:52:40.916Z,5.53
2022-11-03T02:55:19.443Z,6.25
2022-11-03T02:57:57.249Z,5.75
2022-11-03T03:00:25.153Z,5.93
2022-11-03T03:03:16.111Z,6.03
2022-11-03T03:05:45.813Z,6.50
2022-11-03T03:08:15.375Z,6.40
2022-11-03T03:10:48.598Z,6.85
2022-11-03T03:13:20.132Z,7.10
2022-11-03T03:16:03.402Z,6.30
2022-11-03T03:18:51.687Z,6.75
2022-11-03T03:21:26.749Z,7.35
2022-11-03T03:24:05.816Z,6.72
2022-11-03T03:26:45.965Z,7.10
2022-11-03T03:29:23.719Z,6.97
2022-11-03T03:32:01.213Z,7.10
2022-11-03T03:34:35.354Z,6.47
2022-11-03T03:37:06.266Z,7.30
2022-11-03T03:39:38.319Z,7.50
2022-11-03T03:42:09.481Z,7.10
2022-11-03T03:44:40.275Z,6.22
2022-11-03T03:47:26.629Z,6.55
2022-11-03T03:49:54.151Z,7.07
2022-11-03T03:52:22.196Z,7.05
2022-11-03T03:54:49.921Z,7.30
2022-11-03T03:57:23.634Z,5.75
2022-11-03T03:59:51.254Z,5.97
2022-11-03T04:02:20.059Z,5.78
2022-11-03T04:04:47.766Z,5.40
2022-11-03T04:07:33.421Z,4.97
2022-11-03T04:10:00.904Z,4.70
2022-11-03T04:12:46.740Z,4.55
2022-11-03T04:15:32.902Z,5.28
2022-11-03T04:18:19.046Z,4.90
2022-11-03T04:21:05.473Z,4.30
2022-11-03T04:23:32.911Z,4.55
2022-11-03T04:26:02.809Z,4.38
2022-11-03T04:28:30.277Z,4.20
2022-11-03T04:31:00.228Z,4.32
2022-11-03T04:33:29.851Z,3.50
2022-11-03T04:36:00.016Z,4.00
2022-11-03T04:38:29.659Z,3.67
2022-11-03T04:40:59.148Z,4.00
2022-11-03T04:43:38.269Z,4.03
2022-11-03T04:46:09.630Z,4.18
2022-11-03T04:48:37.489Z,3.85
2022-11-03T04:51:25.820Z,4.45
2022-11-03T04:53:56.153Z,4.40
2022-11-03T04:56:25.544Z,4.45
2022-11-03T04:58:54.203Z,4.05
2022-11-03T05:01:24.832Z,4.70
2022-11-03T05:03:56.888Z,4.40
2022-11-03T05:06:28.720Z,4.13
2022-11-03T05:09:00.833Z,3.78
2022-11-03T05:11:34.063Z,4.25
2022-11-03T05:14:07.135Z,3.95
2022-11-03T05:16:35.900Z,4.15
2022-11-03T05:19:03.617Z,4.40
2022-11-03T05:21:31.265Z,4.53
2022-11-03T05:24:03.375Z,4.85
2022-11-03T05:26:34.862Z,4.15
2022-11-03T05:29:04.660Z,3.92
2022-11-03T05:31:35.926Z,4.10
2022-11-03T05:34:38.569Z,4.00
2022-11-03T05:40:00.880Z,3.30
2022-11-03T05:42:33.230Z,3.70
2022-11-03T05:45:04.968Z,3.42
2022-11-03T05:47:38.895Z,3.72
2022-11-03T05:50:19.867Z,3.75
2022-11-03T05:52:52.177Z,3.30
2022-11-03T05:55:32.145Z,3.10
2022-11-03T05:58:05.327Z,3.13
2022-11-03T06:00:38.201Z,3.40
2022-11-03T06:03:06.623Z,3.30
2022-11-03T06:05:35.233Z,3.00
2022-11-03T06:08:12.469Z,3.05
2022-11-03T06:10:45.656Z,3.35
2022-11-03T06:13:18.997Z,3.30
2022-11-03T06:15:50.136Z,3.30
2022-11-03T06:18:27.157Z,3.17
2022-11-03T06:21:02.720Z,3.15
2022-11-03T06:23:35.736Z,2.90
2022-11-03T06:26:04.431Z,3.05
2022-11-03T06:28:39.706Z,3.42
2022-11-03T06:31:22.907Z,3.22
2022-11-03T06:33:53.058Z,2.78
2022-11-03T06:36:23.636Z,3.00
2022-11-03T06:38:57.971Z,3.05
2022-11-03T06:41:28.192Z,2.75
2022-11-03T06:43:56.627Z,3.15
2022-11-03T06:46:26.904Z,3.40
2022-11-03T06:48:57.875Z,3.00
2022-11-03T06:51:28.345Z,3.03
2022-11-03T06:53:59.365Z,3.00
2022-11-03T06:56:31.940Z,3.10
2022-11-03T06:58:59.315Z,2.83
2022-11-03T07:01:35.730Z,3.30
2022-11-03T07:04:16.111Z,3.47
2022-11-03T07:06:53.021Z,3.13
2022-11-03T07:09:24.424Z,3.05
2022-11-03T07:11:58.336Z,3.10
2022-11-03T07:14:35.440Z,3.10
2022-11-03T07:17:06.052Z,3.47
2022-11-03T07:19:44.152Z,3.10
2022-11-03T07:22:11.731Z,2.92
2022-11-03T07:24:44.908Z,3.40
2022-11-03T07:27:25.937Z,3.42
2022-11-03T07:29:59.147Z,3.38
2022-11-03T07:32:36.517Z,3.63
2022-11-03T07:36:00.335Z,3.35
2022-11-03T07:38:26.528Z,3.08
2022-11-03T07:40:57.947Z,3.38
2022-11-03T07:43:35.192Z,3.40
2022-11-03T07:46:04.749Z,3.30
2022-11-03T07:48:48.831Z,2.83
2022-11-03T07:51:33.068Z,2.90
2022-11-03T07:56:49.922Z,2.90
2022-11-03T07:59:33.781Z,3.13
2022-11-03T08:02:03.483Z,3.97
2022-11-03T08:04:34.680Z,3.13
2022-11-03T08:07:02.471Z,3.25
2022-11-03T08:09:30.094Z,3.58
2022-11-03T08:11:59.020Z,3.60
2022-11-03T08:14:35.735Z,3.13
2022-11-03T08:17:04.247Z,2.92
2022-11-03T08:19:37.393Z,3.30
2022-11-03T08:22:04.981Z,3.42
2022-11-03T08:24:32.729Z,3.22
2022-11-03T08:27:00.421Z,3.30
2022-11-03T08:29:28.089Z,3.33
2022-11-03T08:31:55.655Z,3.60
2022-11-03T08:34:23.348Z,3.47
2022-11-03T08:36:50.906Z,3.58
2022-11-03T08:39:18.431Z,3.53
2022-11-03T08:41:45.950Z,3.53
2022-11-03T08:44:13.494Z,4.30
2022-11-03T08:46:41.286Z,4.10
2022-11-03T08:49:08.935Z,4.00
2022-11-03T08:51:41.404Z,3.90
2022-11-03T08:54:11.698Z,3.63
2022-11-03T08:56:39.158Z,4.10
2022-11-03T08:59:08.078Z,4.07
2022-11-03T09:01:35.558Z,3.85
2022-11-03T09:04:03.865Z,4.40
2022-11-03T09:06:31.478Z,4.30
2022-11-03T09:11:46.582Z,4.40
2022-11-03T09:14:14.848Z,4.45
2022-11-03T09:16:42.281Z,4.20
2022-11-03T09:19:09.786Z,4.22
2022-11-03T09:21:37.333Z,4.82
2022-11-03T09:24:06.265Z,4.50
2022-11-03T09:26:33.889Z,3.80
2022-11-03T09:29:02.062Z,3.90
2022-11-03T09:31:29.821Z,4.00
2022-11-03T09:33:57.783Z,3.85
2022-11-03T09:36:25.358Z,4.38
2022-11-03T09:38:53.033Z,4.30
2022-11-03T09:41:27.793Z,4.30
2022-11-03T09:44:11.003Z,4.50
2022-11-03T09:47:00.754Z,4.10
2022-11-03T09:49:32.899Z,4.10
2022-11-03T09:52:02.833Z,4.83
2022-11-03T09:54:31.962Z,3.67
2022-11-03T09:57:10.721Z,4.00
2022-11-03T09:59:40.606Z,4.25
2022-11-03T10:02:34.750Z,4.22
2022-11-03T10:05:06.963Z,4.10
2022-11-03T10:07:40.873Z,4.50
2022-11-03T10:10:41.572Z,4.85
2022-11-03T10:13:24.054Z,3.75
2022-11-03T10:15:55.610Z,4.00
2022-11-03T10:18:25.528Z,3.80
2022-11-03T10:20:56.883Z,4.40
2022-11-03T10:23:35.648Z,3.83
2022-11-03T10:26:19.223Z,4.13
2022-11-03T10:29:11.837Z,4.30
2022-11-03T10:31:42.054Z,4.00
2022-11-03T10:34:41.519Z,3.88
2022-11-03T10:37:28.345Z,4.10
2022-11-03T10:40:01.176Z,4.15
2022-11-03T10:42:37.270Z,3.67
2022-11-03T10:45:20.359Z,3.97
2022-11-03T10:48:11.352Z,3.90
2022-11-03T10:51:03.610Z,4.05
2022-11-03T10:53:43.035Z,3.38
2022-11-03T10:56:15.693Z,4.05
2022-11-03T10:58:46.493Z,4.55
2022-11-03T11:01:15.606Z,3.75
2022-11-03T11:03:53.303Z,4.55
2022-11-03T11:06:38.283Z,4.18
2022-11-03T11:09:12.638Z,4.20
2022-11-03T11:11:50.529Z,4.28
2022-11-03T11:14:37.294Z,4.00
2022-11-03T11:17:05.567Z,4.32
2022-11-03T11:20:22.505Z,4.43
2022-11-03T11:22:51.526Z,4.18
2022-11-03T11:25:21.799Z,3.65
2022-11-03T11:27:57.044Z,3.80
2022-11-03T11:30:31.721Z,4.07
2022-11-03T11:33:23.301Z,3.92
2022-11-03T11:35:53.970Z,4.35
2022-11-03T11:38:55.719Z,3.83
2022-11-03T11:42:01.353Z,3.97
2022-11-03T11:44:44.187Z,4.28
2022-11-03T11:47:23.471Z,3.92
2022-11-03T11:50:06.383Z,4.18
2022-11-03T11:52:44.664Z,4.47
2022-11-03T11:55:19.769Z,4.13
2022-11-03T11:57:50.272Z,5.32
2022-11-03T12:00:25.054Z,4.57
2022-11-03T12:02:56.577Z,3.88
2022-11-03T12:05:28.930Z,5.30
2022-11-03T12:07:56.735Z,4.60
2022-11-03T12:10:29.229Z,4.95
2022-11-03T12:12:58.018Z,4.30
2022-11-03T12:15:54.500Z,3.80
2022-11-03T12:18:49.367Z,3.67
2022-11-03T12:21:49.741Z,5.63
2022-11-03T12:24:32.650Z,4.50
2022-11-03T12:27:00.873Z,5.70
2022-11-03T12:29:28.339Z,5.30
2022-11-03T12:31:56.579Z,4.90
2022-11-03T12:34:24.568Z,4.15
2022-11-03T12:36:56.208Z,4.40
2022-11-03T12:39:23.900Z,5.38
2022-11-03T12:41:51.465Z,4.45
2022-11-03T12:44:19.056Z,4.00
2022-11-03T12:46:46.614Z,4.10
2022-11-03T12:49:16.922Z,3.67
2022-11-03T12:51:44.509Z,3.47
2022-11-03T12:54:12.025Z,4.03
2022-11-03T12:56:39.410Z,3.70
2022-11-03T12:59:07.231Z,3.90
2022-11-03T13:01:38.299Z,4.18
2022-11-03T13:04:09.078Z,3.38
2022-11-03T13:06:36.904Z,3.58
2022-11-03T13:09:04.353Z,3.25
2022-11-03T13:11:50.593Z,3.63
2022-11-03T13:14:18.004Z,3.40
2022-11-03T13:16:48.173Z,3.45
2022-11-03T13:19:15.845Z,3.55
2022-11-03T13:21:43.533Z,3.80
2022-11-03T13:24:11.524Z,3.95
2022-11-03T13:26:40.536Z,3.80
2022-11-03T13:29:08.053Z,3.55
2022-11-03T13:31:36.025Z,3.65
2022-11-03T13:34:06.140Z,3.72
2022-11-03T13:36:34.746Z,3.53
2022-11-03T13:39:10.586Z,3.20
2022-11-03T13:41:41.228Z,3.58
2022-11-03T13:44:09.156Z,3.75
2022-11-03T13:46:38.754Z,3.30
2022-11-03T13:49:45.011Z,3.92
2022-11-03T13:51:53.918Z,3.92
2022-11-03T13:59:58.981Z,3.22
2022-11-03T14:05:17.457Z,3.03
2022-11-03T14:07:45.394Z,3.47
2022-11-03T14:10:12.842Z,3.58
2022-11-03T14:12:40.211Z,3.35
2022-11-03T14:15:11.362Z,3.60
2022-11-03T14:17:40.587Z,3.50
2022-11-03T14:20:11.149Z,3.75
2022-11-03T14:22:40.517Z,3.47
2022-11-03T14:25:09.074Z,3.33
2022-11-03T14:27:38.034Z,3.78
2022-11-03T14:30:10.293Z,3.55
2022-11-03T14:32:37.991Z,3.58
2022-11-03T14:35:06.567Z,3.08
2022-11-03T14:37:34.175Z,3.28
2022-11-03T14:40:01.689Z,3.22
2022-11-03T14:42:29.160Z,2.53
2022-11-03T14:44:56.575Z,2.10
2022-11-03T14:47:25.745Z,2.10
2022-11-03T14:49:54.135Z,2.10
2022-11-03T14:52:21.575Z,1.92
2022-11-03T14:54:49.008Z,2.25
2022-11-03T14:57:16.679Z,2.20
2022-11-03T14:59:46.727Z,2.13
2022-11-03T15:02:16.834Z,2.17
2022-11-03T15:04:44.453Z,1.65
2022-11-03T15:07:11.806Z,2.08
2022-11-03T15:09:39.177Z,1.75
2022-11-03T15:12:06.839Z,2.22
2022-11-03T15:14:34.202Z,2.10
2022-11-03T15:17:01.553Z,1.90
2022-11-03T15:19:29.159Z,2.00
2022-11-03T15:21:56.509Z,1.65
2022-11-03T15:27:13.161Z,2.33
2022-11-03T15:29:40.594Z,2.10
2022-11-03T15:32:08.014Z,1.80
2022-11-03T15:34:35.342Z,2.10
2022-11-03T15:37:02.762Z,2.20
2022-11-03T15:39:30.248Z,2.53
2022-11-03T15:41:57.716Z,1.88
2022-11-03T15:44:25.244Z,1.90
2022-11-03T15:46:52.806Z,1.77
2022-11-03T15:49:20.284Z,1.95
2022-11-03T15:51:48.440Z,1.85
2022-11-03T15:54:19.243Z,1.90
2022-11-03T15:56:48.830Z,2.13
2022-11-03T15:59:16.438Z,1.80
2022-11-03T16:01:44.026Z,1.90
2022-11-03T16:04:11.767Z,1.67
2022-11-03T16:07:07.499Z,1.85
2022-11-03T16:09:26.577Z,1.90
2022-11-03T16:11:55.498Z,1.60
2022-11-03T16:14:23.092Z,1.90
2022-11-03T16:16:50.568Z,1.70
2022-11-03T16:19:18.100Z,1.73
2022-11-03T16:21:45.660Z,1.92
2022-11-03T16:24:15.477Z,1.90
2022-11-03T16:30:32.061Z,1.52
2022-11-03T16:33:07.720Z,1.80
2022-11-03T16:35:35.783Z,1.77
2022-11-03T16:38:09.347Z,1.70
2022-11-03T16:40:37.612Z,1.50
2022-11-03T16:43:05.070Z,1.50
2022-11-03T16:45:37.567Z,1.17
2022-11-03T16:48:07.421Z,1.38
2022-11-03T16:50:35.502Z,1.45
2022-11-03T16:53:06.954Z,1.73
2022-11-03T16:55:36.416Z,1.60
2022-11-03T16:58:10.137Z,1.60
2022-11-03T17:00:37.711Z,1.92
2022-11-03T17:03:14.068Z,2.10
2022-11-03T17:05:42.276Z,1.67
2022-11-03T17:08:31.670Z,1.45
2022-11-03T17:10:58.372Z,1.70
2022-11-03T17:13:25.918Z,1.80
2022-11-03T17:15:53.503Z,1.90
2022-11-03T17:18:21.081Z,1.95
2022-11-03T17:20:48.624Z,2.00
2022-11-03T17:23:16.087Z,1.73
2022-11-03T17:25:43.766Z,2.55
2022-11-03T17:28:14.080Z,2.22
2022-11-03T17:30:41.574Z,2.10
2022-11-03T17:33:13.451Z,2.60
2022-11-03T17:35:43.674Z,3.25
2022-11-03T17:38:15.004Z,2.13
2022-11-03T17:40:45.155Z,2.13
2022-11-03T17:43:31.672Z,2.33
2022-11-03T17:45:59.813Z,2.30
2022-11-03T17:48:27.401Z,2.13
2022-11-03T17:50:56.678Z,2.30
2022-11-03T17:53:27.351Z,2.47
2022-11-03T17:58:46.824Z,2.92
2022-11-03T18:01:24.646Z,2.80
2022-11-03T18:03:55.127Z,2.92
2022-11-03T18:06:22.753Z,2.88
2022-11-03T18:08:50.512Z,2.72
2022-11-03T18:11:48.129Z,2.83
2022-11-03T18:14:16.454Z,3.83
2022-11-03T18:16:44.070Z,3.40
2022-11-03T18:19:17.664Z,3.55
2022-11-03T18:21:47.257Z,3.42
2022-11-03T18:24:20.697Z,3.28
2022-11-03T18:26:49.210Z,3.75
2022-11-03T18:29:17.084Z,2.47
2022-11-03T18:31:49.969Z,6.45
2022-11-03T18:34:24.542Z,4.13
2022-11-03T18:36:53.114Z,3.53
2022-11-03T18:39:30.435Z,4.13
2022-11-03T18:41:58.088Z,3.53
2022-11-03T18:44:34.717Z,3.28
2022-11-03T18:47:08.403Z,3.83
2022-11-03T18:49:37.578Z,3.00
2022-11-03T18:52:16.386Z,3.97
2022-11-03T18:54:56.089Z,3.10
2022-11-03T18:57:28.160Z,3.83
2022-11-03T18:59:56.126Z,4.25
2022-11-03T19:02:31.416Z,4.25
2022-11-03T19:04:59.187Z,4.15
2022-11-03T19:07:33.454Z,4.32
2022-11-03T19:10:06.055Z,4.03
2022-11-03T19:12:39.297Z,4.13
2022-11-03T19:15:11.592Z,4.32
2022-11-03T19:17:41.841Z,4.40
2022-11-03T19:20:14.596Z,4.18
2022-11-03T19:22:49.863Z,5.32
2022-11-03T19:25:20.935Z,3.92
2022-11-03T19:27:52.869Z,4.53
2022-11-03T19:30:22.665Z,4.43
2022-11-03T19:33:23.287Z,4.97
2022-11-03T19:35:58.717Z,4.30
2022-11-03T19:38:39.480Z,4.00
2022-11-03T19:41:33.600Z,4.55
2022-11-03T19:44:01.868Z,4.13
2022-11-03T19:46:29.745Z,4.13
2022-11-03T19:49:02.812Z,4.30
2022-11-03T19:51:33.283Z,4.50
2022-11-03T19:54:01.541Z,4.75
2022-11-03T19:56:29.137Z,4.63
2022-11-03T19:58:57.007Z,4.80
2022-11-03T20:01:24.581Z,4.28
2022-11-03T20:03:52.918Z,5.28
2022-11-03T20:06:20.680Z,4.50
2022-11-03T20:08:48.347Z,4.13
2022-11-03T20:11:15.876Z,4.88
2022-11-03T20:13:46.853Z,5.38
2022-11-03T20:16:17.372Z,5.20
2022-11-03T20:18:44.951Z,4.88
2022-11-03T20:21:16.780Z,5.03
2022-11-03T20:23:49.577Z,3.55
2022-11-03T20:26:20.583Z,4.82
2022-11-03T20:28:50.586Z,4.53
2022-11-03T20:31:18.500Z,4.20
2022-11-03T20:33:46.053Z,5.43
2022-11-03T20:36:19.302Z,5.25
2022-11-03T20:38:52.878Z,4.53
2022-11-03T20:41:20.441Z,3.67
2022-11-03T20:43:48.322Z,4.80
2022-11-03T20:46:21.662Z,4.57
2022-11-03T20:48:49.858Z,4.45
2022-11-03T20:51:20.166Z,3.88
2022-11-03T20:53:48.112Z,5.28
2022-11-03T20:56:19.798Z,5.15
2022-11-03T20:58:48.302Z,4.68
2022-11-03T21:01:18.552Z,5.13
2022-11-03T21:03:58.794Z,5.07
2022-11-03T21:06:28.717Z,4.72
2022-11-03T21:08:56.566Z,4.90
2022-11-03T21:11:30.025Z,5.10
2022-11-03T21:14:00.453Z,4.95
2022-11-03T21:16:48.191Z,5.25
2022-11-03T21:19:35.487Z,4.97
2022-11-03T21:22:03.043Z,5.07
2022-11-03T21:24:30.442Z,4.90
2022-11-03T21:26:58.053Z,4.88
2022-11-03T21:29:53.382Z,4.00
2022-11-03T21:32:16.312Z,4.97
2022-11-03T21:34:44.484Z,5.55
2022-11-03T21:37:17.631Z,4.63
2022-11-03T21:39:45.190Z,4.80
2022-11-03T21:42:33.465Z,4.80
2022-11-03T21:45:01.292Z,5.03
2022-11-03T21:47:31.435Z,4.97
2022-11-03T21:52:34.323Z,4.35
2022-11-03T21:55:04.494Z,4.68
2022-11-03T21:57:32.423Z,4.35
2022-11-03T21:59:59.997Z,4.22
2022-11-03T22:02:30.261Z,4.45
2022-11-03T22:04:58.316Z,4.70
2022-11-03T22:07:25.885Z,4.50
2022-11-03T22:09:53.378Z,4.97
2022-11-03T22:12:20.960Z,4.25
2022-11-03T22:15:06.696Z,4.13
2022-11-03T22:17:34.169Z,4.22
2022-11-03T22:20:19.926Z,4.50
2022-11-03T22:23:05.753Z,4.07
2022-11-03T22:25:51.451Z,4.40
2022-11-03T22:28:19.225Z,3.78
2022-11-03T22:31:05.347Z,3.67
2022-11-03T22:33:53.390Z,3.90
2022-11-03T22:36:27.291Z,3.97
2022-11-03T22:42:03.548Z,3.88
2022-11-03T22:44:52.402Z,3.75
2022-11-03T22:47:19.998Z,3.60
2022-11-03T22:49:47.501Z,4.07
2022-11-03T22:52:15.918Z,4.03
2022-11-03T22:54:44.106Z,3.13
2022-11-03T22:57:11.834Z,3.55
2022-11-03T22:59:39.338Z,3.70
2022-11-03T23:02:07.076Z,3.53
2022-11-03T23:04:34.756Z,3.85
2022-11-03T23:07:02.256Z,3.92
2022-11-03T23:09:29.795Z,3.65
2022-11-03T23:11:57.253Z,3.38
2022-11-03T23:15:06.804Z,3.58
2022-11-03T23:17:52.648Z,3.28
2022-11-03T23:20:38.423Z,3.63
2022-11-03T23:23:06.189Z,3.53
2022-11-03T23:25:33.721Z,3.97
2022-11-03T23:28:01.152Z,3.40
2022-11-03T23:30:28.634Z,3.80
2022-11-03T23:32:56.140Z,3.55
2022-11-03T23:35:23.533Z,3.90
2022-11-03T23:37:50.992Z,3.70
2022-11-03T23:40:20.512Z,3.67
2022-11-03T23:42:49.037Z,3.45
2022-11-03T23:45:34.883Z,3.20
2022-11-03T23:48:20.603Z,3.60
2022-11-03T23:50:47.926Z,3.70
2022-11-03T23:53:15.223Z,3.40
2022-11-03T23:56:01.064Z,3.92
2022-11-03T23:58:28.684Z,3.58
